sensor_id;sensor_type;location;lat;lon;timestamp;temperature;humidity
17483;DHT22;8858;52.308;20.994;2023-04-08T00:01:49;7.40;99.90
17483;DHT22;8858;52.308;20.994;2023-04-08T00:04:18;7.40;99.90
17483;DHT22;8858;52.308;20.994;2023-04-08T00:06:47;7.40;99.90
17483;DHT22;8858;52.308;20.994;2023-04-08T00:09:15;7.40;99.90
17483;DHT22;8858;52.308;20.994;2023-04-08T00:11:46;7.40;99.90
17483;DHT22;8858;52.308;20.994;2023-04-08T00:14:16;7.40;99.90
17483;DHT22;8858;52.308;20.994;2023-04-08T00:16:44;7.30;99.90
17483;DHT22;8858;52.308;20.994;2023-04-08T00:19:12;7.30;99.90
17483;DHT22;8858;52.308;20.994;2023-04-08T00:21:41;7.30;99.90
17483;DHT22;8858;52.308;20.994;2023-04-08T00:24:09;7.30;99.90
17483;DHT22;8858;52.308;20.994;2023-04-08T00:26:43;7.30;99.90
17483;DHT22;8858;52.308;20.994;2023-04-08T00:29:13;7.30;99.90
17483;DHT22;8858;52.308;20.994;2023-04-08T00:31:42;7.30;99.90
17483;DHT22;8858;52.308;20.994;2023-04-08T00:34:12;7.30;99.90
17483;DHT22;8858;52.308;20.994;2023-04-08T00:36:40;7.30;99.90
17483;DHT22;8858;52.308;20.994;2023-04-08T00:39:12;7.30;99.90
17483;DHT22;8858;52.308;20.994;2023-04-08T00:41:40;7.30;99.90
17483;DHT22;8858;52.308;20.994;2023-04-08T00:44:08;7.30;99.90
17483;DHT22;8858;52.308;20.994;2023-04-08T00:46:39;7.30;99.90
17483;DHT22;8858;52.308;20.994;2023-04-08T00:49:07;7.30;99.90
17483;DHT22;8858;52.308;20.994;2023-04-08T00:51:40;7.20;99.90
17483;DHT22;8858;52.308;20.994;2023-04-08T00:54:08;7.30;99.90
17483;DHT22;8858;52.308;20.994;2023-04-08T00:56:37;7.20;99.90
17483;DHT22;8858;52.308;20.994;2023-04-08T00:59:06;7.20;99.90
17483;DHT22;8858;52.308;20.994;2023-04-08T01:01:46;7.20;99.90
17483;DHT22;8858;52.308;20.994;2023-04-08T01:04:25;7.20;99.90
17483;DHT22;8858;52.308;20.994;2023-04-08T01:07:02;7.10;99.90
17483;DHT22;8858;52.308;20.994;2023-04-08T01:09:36;7.10;99.90
17483;DHT22;8858;52.308;20.994;2023-04-08T01:12:11;7.10;99.90
17483;DHT22;8858;52.308;20.994;2023-04-08T01:14:46;7.10;99.90
17483;DHT22;8858;52.308;20.994;2023-04-08T01:17:22;7.10;99.90
17483;DHT22;8858;52.308;20.994;2023-04-08T01:19:51;7.10;99.90
17483;DHT22;8858;52.308;20.994;2023-04-08T01:22:57;7.10;99.90
17483;DHT22;8858;52.308;20.994;2023-04-08T01:25:32;7.00;99.90
17483;DHT22;8858;52.308;20.994;2023-04-08T01:28:04;7.00;99.90
17483;DHT22;8858;52.308;20.994;2023-04-08T01:30:35;7.10;99.90
17483;DHT22;8858;52.308;20.994;2023-04-08T01:33:06;7.00;99.90
17483;DHT22;8858;52.308;20.994;2023-04-08T01:35:40;6.90;99.90
17483;DHT22;8858;52.308;20.994;2023-04-08T01:38:15;7.00;99.90
17483;DHT22;8858;52.308;20.994;2023-04-08T01:40:48;6.90;99.90
17483;DHT22;8858;52.308;20.994;2023-04-08T01:43:19;6.80;99.90
17483;DHT22;8858;52.308;20.994;2023-04-08T01:45:48;6.80;99.90
17483;DHT22;8858;52.308;20.994;2023-04-08T01:48:21;6.70;99.90
17483;DHT22;8858;52.308;20.994;2023-04-08T01:50:51;6.70;99.90
17483;DHT22;8858;52.308;20.994;2023-04-08T01:53:20;6.70;99.90
17483;DHT22;8858;52.308;20.994;2023-04-08T01:55:54;6.60;99.90
17483;DHT22;8858;52.308;20.994;2023-04-08T01:58:32;6.50;99.90
17483;DHT22;8858;52.308;20.994;2023-04-08T02:01:13;6.50;99.90
17483;DHT22;8858;52.308;20.994;2023-04-08T02:03:44;6.40;99.90
17483;DHT22;8858;52.308;20.994;2023-04-08T02:06:14;6.40;99.90
17483;DHT22;8858;52.308;20.994;2023-04-08T02:08:43;6.30;99.90
17483;DHT22;8858;52.308;20.994;2023-04-08T02:11:13;6.20;99.90
17483;DHT22;8858;52.308;20.994;2023-04-08T02:13:43;6.20;99.90
17483;DHT22;8858;52.308;20.994;2023-04-08T02:16:15;6.20;99.90
17483;DHT22;8858;52.308;20.994;2023-04-08T02:18:56;6.10;99.90
17483;DHT22;8858;52.308;20.994;2023-04-08T02:21:30;6.00;99.90
17483;DHT22;8858;52.308;20.994;2023-04-08T02:24:04;6.00;99.90
17483;DHT22;8858;52.308;20.994;2023-04-08T02:26:36;5.90;99.90
17483;DHT22;8858;52.308;20.994;2023-04-08T02:29:13;5.80;99.90
17483;DHT22;8858;52.308;20.994;2023-04-08T02:31:43;5.70;99.90
17483;DHT22;8858;52.308;20.994;2023-04-08T02:34:14;5.70;99.90
17483;DHT22;8858;52.308;20.994;2023-04-08T02:36:43;5.70;99.90
17483;DHT22;8858;52.308;20.994;2023-04-08T02:39:16;5.60;99.90
17483;DHT22;8858;52.308;20.994;2023-04-08T02:41:47;5.60;99.90
17483;DHT22;8858;52.308;20.994;2023-04-08T02:44:18;5.50;99.90
17483;DHT22;8858;52.308;20.994;2023-04-08T02:46:49;5.50;99.90
17483;DHT22;8858;52.308;20.994;2023-04-08T02:49:18;5.40;99.90
17483;DHT22;8858;52.308;20.994;2023-04-08T02:51:46;5.40;99.90
17483;DHT22;8858;52.308;20.994;2023-04-08T02:54:15;5.30;99.90
17483;DHT22;8858;52.308;20.994;2023-04-08T02:56:43;5.30;99.90
17483;DHT22;8858;52.308;20.994;2023-04-08T02:59:18;5.20;99.90
17483;DHT22;8858;52.308;20.994;2023-04-08T03:01:47;5.20;99.90
17483;DHT22;8858;52.308;20.994;2023-04-08T03:04:17;5.10;99.90
17483;DHT22;8858;52.308;20.994;2023-04-08T03:06:45;5.10;99.90
17483;DHT22;8858;52.308;20.994;2023-04-08T03:09:14;5.00;99.90
17483;DHT22;8858;52.308;20.994;2023-04-08T03:11:44;5.00;99.90
17483;DHT22;8858;52.308;20.994;2023-04-08T03:14:21;4.90;99.90
17483;DHT22;8858;52.308;20.994;2023-04-08T03:16:51;4.90;99.90
17483;DHT22;8858;52.308;20.994;2023-04-08T03:19:20;4.90;99.90
17483;DHT22;8858;52.308;20.994;2023-04-08T03:21:48;4.90;99.90
17483;DHT22;8858;52.308;20.994;2023-04-08T03:24:16;4.90;99.90
17483;DHT22;8858;52.308;20.994;2023-04-08T03:26:45;4.80;99.90
17483;DHT22;8858;52.308;20.994;2023-04-08T03:29:16;4.80;99.90
17483;DHT22;8858;52.308;20.994;2023-04-08T03:31:46;4.80;99.90
17483;DHT22;8858;52.308;20.994;2023-04-08T03:34:15;4.80;99.90
17483;DHT22;8858;52.308;20.994;2023-04-08T03:36:44;4.80;99.90
17483;DHT22;8858;52.308;20.994;2023-04-08T03:39:13;4.70;99.90
17483;DHT22;8858;52.308;20.994;2023-04-08T03:41:41;4.70;99.90
17483;DHT22;8858;52.308;20.994;2023-04-08T03:44:09;4.70;99.90
17483;DHT22;8858;52.308;20.994;2023-04-08T03:46:37;4.70;99.90
17483;DHT22;8858;52.308;20.994;2023-04-08T03:49:10;4.60;99.90
17483;DHT22;8858;52.308;20.994;2023-04-08T03:51:39;4.60;99.90
17483;DHT22;8858;52.308;20.994;2023-04-08T03:54:07;4.50;99.90
17483;DHT22;8858;52.308;20.994;2023-04-08T03:56:35;4.50;99.90
17483;DHT22;8858;52.308;20.994;2023-04-08T03:59:03;4.50;99.90
17483;DHT22;8858;52.308;20.994;2023-04-08T04:01:33;4.50;99.90
17483;DHT22;8858;52.308;20.994;2023-04-08T04:04:01;4.40;99.90
17483;DHT22;8858;52.308;20.994;2023-04-08T04:06:32;4.40;99.90
17483;DHT22;8858;52.308;20.994;2023-04-08T04:09:00;4.40;99.90
17483;DHT22;8858;52.308;20.994;2023-04-08T04:11:28;4.30;99.90
17483;DHT22;8858;52.308;20.994;2023-04-08T04:13:57;4.30;99.90
17483;DHT22;8858;52.308;20.994;2023-04-08T04:16:25;4.30;99.90
17483;DHT22;8858;52.308;20.994;2023-04-08T04:18:56;4.30;99.90
17483;DHT22;8858;52.308;20.994;2023-04-08T04:21:25;4.20;99.90
17483;DHT22;8858;52.308;20.994;2023-04-08T04:23:55;4.20;99.90
17483;DHT22;8858;52.308;20.994;2023-04-08T04:26:24;4.20;99.90
17483;DHT22;8858;52.308;20.994;2023-04-08T04:28:52;4.20;99.90
17483;DHT22;8858;52.308;20.994;2023-04-08T04:31:22;4.20;99.90
17483;DHT22;8858;52.308;20.994;2023-04-08T04:34:16;4.20;99.90
17483;DHT22;8858;52.308;20.994;2023-04-08T04:36:46;4.10;99.90
17483;DHT22;8858;52.308;20.994;2023-04-08T04:39:16;4.10;99.90
17483;DHT22;8858;52.308;20.994;2023-04-08T04:41:44;4.20;99.90
17483;DHT22;8858;52.308;20.994;2023-04-08T04:44:15;4.20;99.90
17483;DHT22;8858;52.308;20.994;2023-04-08T04:46:43;4.20;99.90
17483;DHT22;8858;52.308;20.994;2023-04-08T04:49:13;4.20;99.90
17483;DHT22;8858;52.308;20.994;2023-04-08T04:51:41;4.20;99.90
17483;DHT22;8858;52.308;20.994;2023-04-08T04:54:10;4.30;99.90
17483;DHT22;8858;52.308;20.994;2023-04-08T04:56:43;4.30;99.90
17483;DHT22;8858;52.308;20.994;2023-04-08T04:59:11;4.40;99.90
17483;DHT22;8858;52.308;20.994;2023-04-08T05:01:43;4.40;99.90
17483;DHT22;8858;52.308;20.994;2023-04-08T05:04:12;4.40;99.90
17483;DHT22;8858;52.308;20.994;2023-04-08T05:06:40;4.40;99.90
17483;DHT22;8858;52.308;20.994;2023-04-08T05:09:09;4.50;99.90
17483;DHT22;8858;52.308;20.994;2023-04-08T05:11:37;4.50;99.90
17483;DHT22;8858;52.308;20.994;2023-04-08T05:14:07;4.50;99.90
17483;DHT22;8858;52.308;20.994;2023-04-08T05:16:36;4.60;99.90
17483;DHT22;8858;52.308;20.994;2023-04-08T05:19:05;4.60;99.90
17483;DHT22;8858;52.308;20.994;2023-04-08T05:21:33;4.70;99.90
17483;DHT22;8858;52.308;20.994;2023-04-08T05:24:02;4.70;99.90
17483;DHT22;8858;52.308;20.994;2023-04-08T05:26:30;4.70;99.90
17483;DHT22;8858;52.308;20.994;2023-04-08T05:28:58;4.80;99.90
17483;DHT22;8858;52.308;20.994;2023-04-08T05:31:28;4.80;99.90
17483;DHT22;8858;52.308;20.994;2023-04-08T05:33:57;4.90;99.90
17483;DHT22;8858;52.308;20.994;2023-04-08T05:36:25;5.00;99.90
17483;DHT22;8858;52.308;20.994;2023-04-08T05:38:54;5.00;99.90
17483;DHT22;8858;52.308;20.994;2023-04-08T05:41:22;5.10;99.90
17483;DHT22;8858;52.308;20.994;2023-04-08T05:43:51;5.20;99.90
17483;DHT22;8858;52.308;20.994;2023-04-08T05:46:20;5.20;99.90
17483;DHT22;8858;52.308;20.994;2023-04-08T05:48:51;5.30;99.90
17483;DHT22;8858;52.308;20.994;2023-04-08T05:51:19;5.30;99.90
17483;DHT22;8858;52.308;20.994;2023-04-08T05:53:47;5.40;99.90
17483;DHT22;8858;52.308;20.994;2023-04-08T05:56:16;5.50;99.90
17483;DHT22;8858;52.308;20.994;2023-04-08T05:58:45;5.50;99.90
17483;DHT22;8858;52.308;20.994;2023-04-08T06:01:15;5.60;99.90
17483;DHT22;8858;52.308;20.994;2023-04-08T06:03:43;5.70;99.90
17483;DHT22;8858;52.308;20.994;2023-04-08T06:06:16;5.70;99.90
17483;DHT22;8858;52.308;20.994;2023-04-08T06:08:44;5.80;99.90
17483;DHT22;8858;52.308;20.994;2023-04-08T06:11:13;5.90;99.90
17483;DHT22;8858;52.308;20.994;2023-04-08T06:13:44;6.00;99.90
17483;DHT22;8858;52.308;20.994;2023-04-08T06:16:14;6.10;99.90
17483;DHT22;8858;52.308;20.994;2023-04-08T06:18:46;6.20;99.90
17483;DHT22;8858;52.308;20.994;2023-04-08T06:21:16;6.30;99.90
17483;DHT22;8858;52.308;20.994;2023-04-08T06:23:45;6.40;99.90
17483;DHT22;8858;52.308;20.994;2023-04-08T06:26:13;6.40;99.90
17483;DHT22;8858;52.308;20.994;2023-04-08T06:28:44;6.50;99.90
17483;DHT22;8858;52.308;20.994;2023-04-08T06:31:12;6.60;99.90
17483;DHT22;8858;52.308;20.994;2023-04-08T06:33:41;6.60;99.90
17483;DHT22;8858;52.308;20.994;2023-04-08T06:36:09;6.70;99.90
17483;DHT22;8858;52.308;20.994;2023-04-08T06:38:40;6.80;99.90
17483;DHT22;8858;52.308;20.994;2023-04-08T06:41:08;6.80;99.90
17483;DHT22;8858;52.308;20.994;2023-04-08T06:43:40;6.90;99.90
17483;DHT22;8858;52.308;20.994;2023-04-08T06:46:08;7.00;99.90
17483;DHT22;8858;52.308;20.994;2023-04-08T06:48:36;7.10;99.90
17483;DHT22;8858;52.308;20.994;2023-04-08T06:51:06;7.20;99.90
17483;DHT22;8858;52.308;20.994;2023-04-08T06:53:34;7.30;99.90
17483;DHT22;8858;52.308;20.994;2023-04-08T06:56:09;7.30;99.90
17483;DHT22;8858;52.308;20.994;2023-04-08T06:58:38;7.40;99.90
17483;DHT22;8858;52.308;20.994;2023-04-08T07:01:06;7.40;99.90
17483;DHT22;8858;52.308;20.994;2023-04-08T07:03:34;7.50;99.90
17483;DHT22;8858;52.308;20.994;2023-04-08T07:06:03;7.60;99.90
17483;DHT22;8858;52.308;20.994;2023-04-08T07:08:31;7.60;99.90
17483;DHT22;8858;52.308;20.994;2023-04-08T07:11:01;7.70;99.90
17483;DHT22;8858;52.308;20.994;2023-04-08T07:13:31;7.70;99.90
17483;DHT22;8858;52.308;20.994;2023-04-08T07:15:59;7.80;99.90
17483;DHT22;8858;52.308;20.994;2023-04-08T07:18:27;7.90;99.90
17483;DHT22;8858;52.308;20.994;2023-04-08T07:20:56;7.90;99.90
17483;DHT22;8858;52.308;20.994;2023-04-08T07:23:30;8.00;99.90
17483;DHT22;8858;52.308;20.994;2023-04-08T07:26:01;8.10;99.90
17483;DHT22;8858;52.308;20.994;2023-04-08T07:28:31;8.10;99.90
17483;DHT22;8858;52.308;20.994;2023-04-08T07:31:09;8.20;99.90
17483;DHT22;8858;52.308;20.994;2023-04-08T07:33:37;8.20;99.90
17483;DHT22;8858;52.308;20.994;2023-04-08T07:36:05;8.30;99.90
17483;DHT22;8858;52.308;20.994;2023-04-08T07:38:34;8.30;99.90
17483;DHT22;8858;52.308;20.994;2023-04-08T07:41:02;8.30;99.90
17483;DHT22;8858;52.308;20.994;2023-04-08T07:43:32;8.40;99.90
17483;DHT22;8858;52.308;20.994;2023-04-08T07:46:03;8.50;99.90
17483;DHT22;8858;52.308;20.994;2023-04-08T07:48:32;8.60;99.90
17483;DHT22;8858;52.308;20.994;2023-04-08T07:51:05;8.60;99.90
17483;DHT22;8858;52.308;20.994;2023-04-08T07:53:38;8.70;99.90
17483;DHT22;8858;52.308;20.994;2023-04-08T07:56:10;8.80;99.90
17483;DHT22;8858;52.308;20.994;2023-04-08T07:58:40;8.80;99.90
17483;DHT22;8858;52.308;20.994;2023-04-08T08:01:16;8.90;99.90
17483;DHT22;8858;52.308;20.994;2023-04-08T08:03:45;8.90;99.90
17483;DHT22;8858;52.308;20.994;2023-04-08T08:06:17;9.00;99.90
17483;DHT22;8858;52.308;20.994;2023-04-08T08:08:45;9.00;99.90
17483;DHT22;8858;52.308;20.994;2023-04-08T08:11:13;9.10;99.90
17483;DHT22;8858;52.308;20.994;2023-04-08T08:13:44;9.10;99.90
17483;DHT22;8858;52.308;20.994;2023-04-08T08:16:12;9.20;99.90
17483;DHT22;8858;52.308;20.994;2023-04-08T08:18:40;9.30;99.90
17483;DHT22;8858;52.308;20.994;2023-04-08T08:21:09;9.30;99.90
17483;DHT22;8858;52.308;20.994;2023-04-08T08:23:37;9.40;99.90
17483;DHT22;8858;52.308;20.994;2023-04-08T08:26:07;9.40;99.90
17483;DHT22;8858;52.308;20.994;2023-04-08T08:28:36;9.50;99.90
17483;DHT22;8858;52.308;20.994;2023-04-08T08:31:06;9.60;99.90
17483;DHT22;8858;52.308;20.994;2023-04-08T08:33:38;9.60;99.90
17483;DHT22;8858;52.308;20.994;2023-04-08T08:36:09;9.80;99.90
17483;DHT22;8858;52.308;20.994;2023-04-08T08:38:37;9.80;99.90
17483;DHT22;8858;52.308;20.994;2023-04-08T08:41:05;9.90;99.90
17483;DHT22;8858;52.308;20.994;2023-04-08T08:43:34;9.90;99.90
17483;DHT22;8858;52.308;20.994;2023-04-08T08:46:09;10.00;99.90
17483;DHT22;8858;52.308;20.994;2023-04-08T08:48:39;10.10;99.90
17483;DHT22;8858;52.308;20.994;2023-04-08T08:51:10;10.10;99.90
17483;DHT22;8858;52.308;20.994;2023-04-08T08:53:39;10.10;99.90
17483;DHT22;8858;52.308;20.994;2023-04-08T08:56:11;10.20;99.90
17483;DHT22;8858;52.308;20.994;2023-04-08T08:58:44;10.20;99.90
17483;DHT22;8858;52.308;20.994;2023-04-08T09:01:31;10.20;99.90
17483;DHT22;8858;52.308;20.994;2023-04-08T09:04:13;10.30;99.90
17483;DHT22;8858;52.308;20.994;2023-04-08T09:06:44;10.40;99.90
17483;DHT22;8858;52.308;20.994;2023-04-08T09:09:12;10.40;99.90
17483;DHT22;8858;52.308;20.994;2023-04-08T09:11:43;10.50;99.90
17483;DHT22;8858;52.308;20.994;2023-04-08T09:14:23;10.50;99.90
17483;DHT22;8858;52.308;20.994;2023-04-08T09:16:56;10.60;99.90
17483;DHT22;8858;52.308;20.994;2023-04-08T09:19:26;10.70;99.90
17483;DHT22;8858;52.308;20.994;2023-04-08T09:22:12;10.80;99.90
17483;DHT22;8858;52.308;20.994;2023-04-08T09:24:40;10.90;99.90
17483;DHT22;8858;52.308;20.994;2023-04-08T09:27:13;10.90;99.90
17483;DHT22;8858;52.308;20.994;2023-04-08T09:29:43;11.00;99.90
17483;DHT22;8858;52.308;20.994;2023-04-08T09:32:13;11.00;99.90
17483;DHT22;8858;52.308;20.994;2023-04-08T09:34:41;11.10;99.90
17483;DHT22;8858;52.308;20.994;2023-04-08T09:37:10;11.10;99.90
17483;DHT22;8858;52.308;20.994;2023-04-08T09:39:38;11.10;99.90
17483;DHT22;8858;52.308;20.994;2023-04-08T09:42:12;11.20;99.90
17483;DHT22;8858;52.308;20.994;2023-04-08T09:44:41;11.30;99.90
17483;DHT22;8858;52.308;20.994;2023-04-08T09:47:18;11.40;99.90
17483;DHT22;8858;52.308;20.994;2023-04-08T09:49:52;11.50;99.90
17483;DHT22;8858;52.308;20.994;2023-04-08T09:52:27;11.50;99.90
17483;DHT22;8858;52.308;20.994;2023-04-08T09:55:01;11.60;99.90
17483;DHT22;8858;52.308;20.994;2023-04-08T09:57:38;11.70;99.90
17483;DHT22;8858;52.308;20.994;2023-04-08T10:00:12;11.70;99.90
17483;DHT22;8858;52.308;20.994;2023-04-08T10:02:51;11.80;99.90
17483;DHT22;8858;52.308;20.994;2023-04-08T10:05:23;11.80;99.90
17483;DHT22;8858;52.308;20.994;2023-04-08T10:07:55;11.90;99.90
17483;DHT22;8858;52.308;20.994;2023-04-08T10:10:24;12.00;99.90
17483;DHT22;8858;52.308;20.994;2023-04-08T10:12:54;12.10;99.90
17483;DHT22;8858;52.308;20.994;2023-04-08T10:15:27;12.10;99.90
17483;DHT22;8858;52.308;20.994;2023-04-08T10:18:31;12.30;99.90
17483;DHT22;8858;52.308;20.994;2023-04-08T10:21:01;12.30;99.90
17483;DHT22;8858;52.308;20.994;2023-04-08T10:26:37;12.50;99.90
17483;DHT22;8858;52.308;20.994;2023-04-08T10:29:31;12.50;99.90
17483;DHT22;8858;52.308;20.994;2023-04-08T10:32:01;12.70;99.90
17483;DHT22;8858;52.308;20.994;2023-04-08T10:34:31;12.70;99.90
17483;DHT22;8858;52.308;20.994;2023-04-08T10:36:59;12.80;99.90
17483;DHT22;8858;52.308;20.994;2023-04-08T10:39:29;12.90;99.90
17483;DHT22;8858;52.308;20.994;2023-04-08T10:42:02;13.00;99.90
17483;DHT22;8858;52.308;20.994;2023-04-08T10:44:35;13.10;99.90
17483;DHT22;8858;52.308;20.994;2023-04-08T10:47:06;13.20;99.90
17483;DHT22;8858;52.308;20.994;2023-04-08T10:49:35;13.20;99.90
17483;DHT22;8858;52.308;20.994;2023-04-08T10:52:06;13.20;99.90
17483;DHT22;8858;52.308;20.994;2023-04-08T10:54:36;13.30;99.90
17483;DHT22;8858;52.308;20.994;2023-04-08T10:57:05;13.40;99.90
17483;DHT22;8858;52.308;20.994;2023-04-08T10:59:33;13.50;99.90
17483;DHT22;8858;52.308;20.994;2023-04-08T11:02:02;13.60;99.90
17483;DHT22;8858;52.308;20.994;2023-04-08T11:04:31;13.70;99.90
17483;DHT22;8858;52.308;20.994;2023-04-08T11:07:04;13.80;99.90
17483;DHT22;8858;52.308;20.994;2023-04-08T11:09:34;13.90;99.90
17483;DHT22;8858;52.308;20.994;2023-04-08T11:12:03;14.00;99.90
17483;DHT22;8858;52.308;20.994;2023-04-08T11:14:31;14.10;99.90
17483;DHT22;8858;52.308;20.994;2023-04-08T11:16:59;14.20;99.90
17483;DHT22;8858;52.308;20.994;2023-04-08T11:19:28;14.30;99.90
17483;DHT22;8858;52.308;20.994;2023-04-08T11:21:58;14.50;99.90
17483;DHT22;8858;52.308;20.994;2023-04-08T11:24:32;14.50;99.90
17483;DHT22;8858;52.308;20.994;2023-04-08T11:27:00;14.50;99.90
17483;DHT22;8858;52.308;20.994;2023-04-08T11:29:29;14.60;99.90
17483;DHT22;8858;52.308;20.994;2023-04-08T11:31:57;14.80;99.90
17483;DHT22;8858;52.308;20.994;2023-04-08T11:34:26;14.90;99.90
17483;DHT22;8858;52.308;20.994;2023-04-08T11:36:55;15.10;99.90
17483;DHT22;8858;52.308;20.994;2023-04-08T11:39:24;15.20;99.90
17483;DHT22;8858;52.308;20.994;2023-04-08T11:41:55;15.40;99.90
17483;DHT22;8858;52.308;20.994;2023-04-08T11:44:29;15.60;99.90
17483;DHT22;8858;52.308;20.994;2023-04-08T11:46:58;15.60;99.90
17483;DHT22;8858;52.308;20.994;2023-04-08T11:49:43;15.70;99.90
17483;DHT22;8858;52.308;20.994;2023-04-08T11:52:12;15.90;99.90
17483;DHT22;8858;52.308;20.994;2023-04-08T11:54:41;16.20;99.90
17483;DHT22;8858;52.308;20.994;2023-04-08T11:57:11;16.40;99.90
17483;DHT22;8858;52.308;20.994;2023-04-08T11:59:43;16.70;99.90
17483;DHT22;8858;52.308;20.994;2023-04-08T12:02:11;16.70;99.90
17483;DHT22;8858;52.308;20.994;2023-04-08T12:04:40;17.00;99.90
17483;DHT22;8858;52.308;20.994;2023-04-08T12:07:12;17.30;99.90
17483;DHT22;8858;52.308;20.994;2023-04-08T12:09:40;17.60;99.90
17483;DHT22;8858;52.308;20.994;2023-04-08T12:12:12;18.00;99.90
17483;DHT22;8858;52.308;20.994;2023-04-08T12:14:40;18.10;99.90
17483;DHT22;8858;52.308;20.994;2023-04-08T12:17:09;18.40;99.90
17483;DHT22;8858;52.308;20.994;2023-04-08T12:19:38;18.30;99.90
17483;DHT22;8858;52.308;20.994;2023-04-08T12:22:06;18.40;99.90
17483;DHT22;8858;52.308;20.994;2023-04-08T12:24:38;18.60;99.90
17483;DHT22;8858;52.308;20.994;2023-04-08T12:27:06;18.70;99.90
17483;DHT22;8858;52.308;20.994;2023-04-08T12:29:35;18.60;99.90
17483;DHT22;8858;52.308;20.994;2023-04-08T12:32:04;18.40;99.90
17483;DHT22;8858;52.308;20.994;2023-04-08T12:34:34;18.30;99.90
17483;DHT22;8858;52.308;20.994;2023-04-08T12:37:07;18.00;99.90
17483;DHT22;8858;52.308;20.994;2023-04-08T12:39:36;17.90;99.90
17483;DHT22;8858;52.308;20.994;2023-04-08T12:42:06;17.70;99.90
17483;DHT22;8858;52.308;20.994;2023-04-08T12:44:35;17.70;99.90
17483;DHT22;8858;52.308;20.994;2023-04-08T12:47:04;17.70;99.90
17483;DHT22;8858;52.308;20.994;2023-04-08T12:49:35;17.90;99.90
17483;DHT22;8858;52.308;20.994;2023-04-08T12:52:15;18.10;99.90
17483;DHT22;8858;52.308;20.994;2023-04-08T12:54:45;18.20;99.90
17483;DHT22;8858;52.308;20.994;2023-04-08T12:57:13;18.50;99.90
17483;DHT22;8858;52.308;20.994;2023-04-08T12:59:42;18.60;99.90
17483;DHT22;8858;52.308;20.994;2023-04-08T13:02:11;18.80;99.90
17483;DHT22;8858;52.308;20.994;2023-04-08T13:04:39;19.10;99.90
17483;DHT22;8858;52.308;20.994;2023-04-08T13:07:11;19.40;99.90
17483;DHT22;8858;52.308;20.994;2023-04-08T13:09:39;19.70;99.90
17483;DHT22;8858;52.308;20.994;2023-04-08T13:12:07;20.10;99.90
17483;DHT22;8858;52.308;20.994;2023-04-08T13:14:38;20.20;99.90
17483;DHT22;8858;52.308;20.994;2023-04-08T13:17:07;20.40;99.90
17483;DHT22;8858;52.308;20.994;2023-04-08T13:19:37;20.50;99.90
17483;DHT22;8858;52.308;20.994;2023-04-08T13:22:06;20.70;99.90
17483;DHT22;8858;52.308;20.994;2023-04-08T13:24:34;20.50;99.90
17483;DHT22;8858;52.308;20.994;2023-04-08T13:27:03;20.40;99.90
17483;DHT22;8858;52.308;20.994;2023-04-08T13:29:34;20.10;99.90
17483;DHT22;8858;52.308;20.994;2023-04-08T13:32:08;19.80;99.90
17483;DHT22;8858;52.308;20.994;2023-04-08T13:34:36;19.00;99.90
17483;DHT22;8858;52.308;20.994;2023-04-08T13:37:04;18.90;99.90
17483;DHT22;8858;52.308;20.994;2023-04-08T13:39:33;18.90;99.90
17483;DHT22;8858;52.308;20.994;2023-04-08T13:42:03;18.70;99.90
17483;DHT22;8858;52.308;20.994;2023-04-08T13:44:34;18.40;99.90
17483;DHT22;8858;52.308;20.994;2023-04-08T13:47:02;18.30;99.90
17483;DHT22;8858;52.308;20.994;2023-04-08T13:49:32;18.20;99.90
17483;DHT22;8858;52.308;20.994;2023-04-08T13:52:00;18.00;99.90
17483;DHT22;8858;52.308;20.994;2023-04-08T13:54:29;17.80;99.90
17483;DHT22;8858;52.308;20.994;2023-04-08T13:56:57;17.60;99.90
17483;DHT22;8858;52.308;20.994;2023-04-08T13:59:26;17.10;99.90
17483;DHT22;8858;52.308;20.994;2023-04-08T14:01:55;17.00;99.90
17483;DHT22;8858;52.308;20.994;2023-04-08T14:04:23;17.10;99.90
17483;DHT22;8858;52.308;20.994;2023-04-08T14:06:53;17.00;99.90
17483;DHT22;8858;52.308;20.994;2023-04-08T14:09:24;17.00;99.90
17483;DHT22;8858;52.308;20.994;2023-04-08T14:11:52;16.90;99.90
17483;DHT22;8858;52.308;20.994;2023-04-08T14:14:21;16.90;99.90
17483;DHT22;8858;52.308;20.994;2023-04-08T14:16:53;16.90;99.90
17483;DHT22;8858;52.308;20.994;2023-04-08T14:19:21;16.80;99.90
17483;DHT22;8858;52.308;20.994;2023-04-08T14:21:50;16.70;99.90
17483;DHT22;8858;52.308;20.994;2023-04-08T14:24:19;16.70;99.90
17483;DHT22;8858;52.308;20.994;2023-04-08T14:26:48;16.70;99.90
17483;DHT22;8858;52.308;20.994;2023-04-08T14:29:19;16.80;99.90
17483;DHT22;8858;52.308;20.994;2023-04-08T14:31:47;16.80;99.90
17483;DHT22;8858;52.308;20.994;2023-04-08T14:34:16;16.80;99.90
17483;DHT22;8858;52.308;20.994;2023-04-08T14:36:44;16.80;99.90
17483;DHT22;8858;52.308;20.994;2023-04-08T14:39:12;16.70;99.90
17483;DHT22;8858;52.308;20.994;2023-04-08T14:41:42;16.60;99.90
17483;DHT22;8858;52.308;20.994;2023-04-08T14:44:12;16.50;99.90
17483;DHT22;8858;52.308;20.994;2023-04-08T14:46:40;16.30;99.90
17483;DHT22;8858;52.308;20.994;2023-04-08T14:49:09;16.20;99.90
17483;DHT22;8858;52.308;20.994;2023-04-08T14:51:37;16.00;99.90
17483;DHT22;8858;52.308;20.994;2023-04-08T14:54:05;15.90;99.90
17483;DHT22;8858;52.308;20.994;2023-04-08T14:56:36;15.80;99.90
17483;DHT22;8858;52.308;20.994;2023-04-08T14:59:05;15.70;99.90
17483;DHT22;8858;52.308;20.994;2023-04-08T15:01:35;15.70;99.90
17483;DHT22;8858;52.308;20.994;2023-04-08T15:04:04;15.70;99.90
17483;DHT22;8858;52.308;20.994;2023-04-08T15:06:32;15.70;99.90
17483;DHT22;8858;52.308;20.994;2023-04-08T15:09:00;15.70;99.90
17483;DHT22;8858;52.308;20.994;2023-04-08T15:11:29;15.40;99.90
17483;DHT22;8858;52.308;20.994;2023-04-08T15:13:57;15.20;99.90
17483;DHT22;8858;52.308;20.994;2023-04-08T15:16:27;15.10;99.90
17483;DHT22;8858;52.308;20.994;2023-04-08T15:18:55;15.10;99.90
17483;DHT22;8858;52.308;20.994;2023-04-08T15:21:25;15.00;99.90
17483;DHT22;8858;52.308;20.994;2023-04-08T15:23:53;14.90;99.90
17483;DHT22;8858;52.308;20.994;2023-04-08T15:26:22;14.80;99.90
17483;DHT22;8858;52.308;20.994;2023-04-08T15:28:53;14.70;99.90
17483;DHT22;8858;52.308;20.994;2023-04-08T15:31:23;14.60;99.90
17483;DHT22;8858;52.308;20.994;2023-04-08T15:33:52;14.60;99.90
17483;DHT22;8858;52.308;20.994;2023-04-08T15:36:21;14.60;99.90
17483;DHT22;8858;52.308;20.994;2023-04-08T15:38:49;14.60;99.90
17483;DHT22;8858;52.308;20.994;2023-04-08T15:41:18;14.50;99.90
17483;DHT22;8858;52.308;20.994;2023-04-08T15:43:47;14.40;99.90
17483;DHT22;8858;52.308;20.994;2023-04-08T15:46:19;14.30;99.90
17483;DHT22;8858;52.308;20.994;2023-04-08T15:48:47;14.30;99.90
17483;DHT22;8858;52.308;20.994;2023-04-08T15:51:19;14.30;99.90
17483;DHT22;8858;52.308;20.994;2023-04-08T15:53:47;14.20;99.90
17483;DHT22;8858;52.308;20.994;2023-04-08T15:56:20;14.20;99.90
17483;DHT22;8858;52.308;20.994;2023-04-08T15:58:48;14.10;99.90
17483;DHT22;8858;52.308;20.994;2023-04-08T16:01:17;14.20;99.90
17483;DHT22;8858;52.308;20.994;2023-04-08T16:03:46;14.10;99.90